Time;durP1;ratioP1;P1;durP2;ratioP2;P2;SDS_P1;SDS_P2;PMS_P1;PMS_P2;Temp;Humidity;BMP_temperature;BMP_pressure;BME280_temperature;BME280_humidity;BME280_pressure;Samples;Min_cycle;Max_cycle;Signal;HPM_P1;HPM_P2
2021/06/28 00:01:02;;;;;;;;;;;20.40;60.50;;;;;;461534;258;2215;-46
2021/06/28 00:03:03;;;;;;;;;;;20.40;60.50;;;;;;469688;253;1177;-46
2021/06/28 00:05:04;;;;;;;;;;;20.40;60.50;;;;;;469726;253;1166;-46
2021/06/28 00:07:06;;;;;;;;;;;20.40;60.50;;;;;;461611;257;1066;-46
2021/06/28 00:09:07;;;;;;;;;;;20.40;60.50;;;;;;470158;253;1214;-46
2021/06/28 00:11:08;;;;;;;;;;;20.40;60.60;;;;;;470168;253;1065;-45
2021/06/28 00:13:10;;;;;;;;;;;20.40;60.60;;;;;;461962;257;1088;-46
2021/06/28 00:15:11;;;;;;;;;;;20.40;60.60;;;;;;470141;253;1054;-46
2021/06/28 00:17:12;;;;;;;;;;;20.40;60.60;;;;;;470074;253;1054;-46
2021/06/28 00:19:13;;;;;;;;;;;20.40;60.60;;;;;;461622;257;1172;-46
2021/06/28 00:21:15;;;;;;;;;;;20.40;60.60;;;;;;469976;253;2207;-46
2021/06/28 00:23:16;;;;;;;;;;;20.40;60.60;;;;;;469726;253;1172;-46
2021/06/28 00:25:17;;;;;;;;;;;20.40;60.60;;;;;;461726;257;1468;-46
2021/06/28 00:27:22;;;;;;;;;;;20.40;60.60;;;;;;469592;253;1279;-46
2021/06/28 00:29:21;;;;;;;;;;;20.40;60.60;;;;;;469457;254;2012;-46
2021/06/28 00:31:22;;;;;;;;;;;20.40;60.60;;;;;;461463;257;1992;-45
2021/06/28 00:33:23;;;;;;;;;;;20.40;60.60;;;;;;469873;253;1128;-46
2021/06/28 00:35:24;;;;;;;;;;;20.40;60.60;;;;;;469950;253;1051;-46
2021/06/28 00:37:26;;;;;;;;;;;20.40;60.60;;;;;;461546;257;1518;-46
2021/06/28 00:39:27;;;;;;;;;;;20.40;60.70;;;;;;469710;253;1130;-46
2021/06/28 00:41:28;;;;;;;;;;;20.40;60.70;;;;;;469583;250;2136;-46
2021/06/28 00:43:30;;;;;;;;;;;20.40;60.60;;;;;;461558;258;1074;-46
2021/06/28 00:45:31;;;;;;;;;;;20.40;60.70;;;;;;469923;253;1064;-46
2021/06/28 00:47:32;;;;;;;;;;;20.40;60.60;;;;;;469736;253;1152;-46
2021/06/28 00:49:34;;;;;;;;;;;20.40;60.60;;;;;;461567;257;1177;-46
2021/06/28 00:51:35;;;;;;;;;;;20.40;60.60;;;;;;469763;253;1250;-46
2021/06/28 00:53:36;;;;;;;;;;;20.40;60.70;;;;;;469741;253;1133;-46
2021/06/28 00:55:38;;;;;;;;;;;20.40;60.70;;;;;;461926;257;1221;-46
2021/06/28 00:57:39;;;;;;;;;;;20.40;60.60;;;;;;469725;253;1223;-46
2021/06/28 00:59:40;;;;;;;;;;;20.40;60.60;;;;;;469761;253;1007;-46
2021/06/28 01:01:42;;;;;;;;;;;20.40;60.60;;;;;;461815;257;2204;-46
2021/06/28 01:03:43;;;;;;;;;;;20.40;60.60;;;;;;469998;253;1337;-46
2021/06/28 01:05:44;;;;;;;;;;;20.40;60.50;;;;;;469946;253;1204;-46
2021/06/28 01:07:46;;;;;;;;;;;20.40;60.60;;;;;;461581;258;1269;-46
2021/06/28 01:09:47;;;;;;;;;;;20.40;60.60;;;;;;469686;253;1685;-46
2021/06/28 01:11:48;;;;;;;;;;;20.40;60.70;;;;;;469747;253;1188;-46
2021/06/28 01:13:50;;;;;;;;;;;20.40;60.60;;;;;;461669;257;1099;-46
2021/06/28 01:15:51;;;;;;;;;;;20.40;60.60;;;;;;470141;253;1094;-45
2021/06/28 01:17:52;;;;;;;;;;;20.40;60.60;;;;;;469808;253;1153;-46
2021/06/28 01:19:54;;;;;;;;;;;20.40;60.70;;;;;;461556;257;1458;-46
2021/06/28 01:21:55;;;;;;;;;;;20.40;60.70;;;;;;469720;253;2203;-45
2021/06/28 01:23:56;;;;;;;;;;;20.40;60.80;;;;;;469759;253;1000;-46
2021/06/28 01:25:58;;;;;;;;;;;20.40;60.70;;;;;;461830;257;1423;-46
2021/06/28 01:27:59;;;;;;;;;;;20.40;60.70;;;;;;469756;253;1137;-46
2021/06/28 01:30:00;;;;;;;;;;;20.40;60.70;;;;;;470152;253;1054;-46
2021/06/28 01:32:02;;;;;;;;;;;20.40;60.70;;;;;;461765;257;1132;-46
2021/06/28 01:34:03;;;;;;;;;;;20.40;60.80;;;;;;469780;253;1276;-46
2021/06/28 01:36:04;;;;;;;;;;;20.40;60.70;;;;;;469924;253;1383;-46
2021/06/28 01:38:06;;;;;;;;;;;20.40;60.70;;;;;;461611;258;1232;-46
2021/06/28 01:40:07;;;;;;;;;;;20.40;60.80;;;;;;469705;253;985;-46
2021/06/28 01:42:08;;;;;;;;;;;20.40;60.70;;;;;;469769;253;2268;-46
2021/06/28 01:44:09;;;;;;;;;;;20.40;60.70;;;;;;461977;257;1062;-46
2021/06/28 01:46:11;;;;;;;;;;;20.40;60.70;;;;;;469781;250;1190;-46
2021/06/28 01:48:12;;;;;;;;;;;20.40;60.70;;;;;;470054;253;1188;-46
2021/06/28 01:50:13;;;;;;;;;;;20.40;60.70;;;;;;461670;257;1177;-46
2021/06/28 01:52:15;;;;;;;;;;;20.40;60.70;;;;;;470059;253;1275;-46
2021/06/28 01:54:17;;;;;;;;;;;20.40;60.60;;;;;;470020;253;1097;-46
2021/06/28 01:56:18;;;;;;;;;;;20.40;60.60;;;;;;461443;258;2459;-46
2021/06/28 01:58:19;;;;;;;;;;;20.40;60.70;;;;;;470097;253;1289;-46
2021/06/28 02:00:20;;;;;;;;;;;20.40;60.70;;;;;;470157;253;993;-46
2021/06/28 02:02:22;;;;;;;;;;;20.40;60.70;;;;;;461593;257;2144;-46
2021/06/28 02:04:23;;;;;;;;;;;20.40;60.70;;;;;;469846;253;1162;-46
2021/06/28 02:06:24;;;;;;;;;;;20.40;60.70;;;;;;469741;253;1339;-45
2021/06/28 02:08:26;;;;;;;;;;;20.40;60.70;;;;;;461726;257;1150;-46
2021/06/28 02:10:27;;;;;;;;;;;20.40;60.70;;;;;;469734;253;1117;-46
2021/06/28 02:12:28;;;;;;;;;;;20.40;60.70;;;;;;469677;253;1170;-46
2021/06/28 02:14:30;;;;;;;;;;;20.40;60.70;;;;;;461698;257;1187;-46
2021/06/28 02:16:31;;;;;;;;;;;20.40;60.80;;;;;;469842;253;1352;-46
2021/06/28 02:18:32;;;;;;;;;;;20.40;60.70;;;;;;469832;253;1598;-46
2021/06/28 02:20:34;;;;;;;;;;;20.40;60.60;;;;;;461630;257;1200;-46
2021/06/28 02:22:35;;;;;;;;;;;20.40;60.70;;;;;;469916;253;2147;-46
2021/06/28 02:24:36;;;;;;;;;;;20.40;60.80;;;;;;470195;253;1052;-46
2021/06/28 02:26:38;;;;;;;;;;;20.40;60.80;;;;;;461797;257;1152;-46
2021/06/28 02:28:41;;;;;;;;;;;20.40;60.90;;;;;;469797;253;1044;-46
2021/06/28 02:30:42;;;;;;;;;;;20.40;60.80;;;;;;469697;253;1177;-46
2021/06/28 02:32:44;;;;;;;;;;;20.40;60.70;;;;;;461916;257;1318;-46
2021/06/28 02:34:45;;;;;;;;;;;20.40;60.70;;;;;;469842;253;1309;-46
2021/06/28 02:36:46;;;;;;;;;;;20.40;60.80;;;;;;469636;253;1268;-46
2021/06/28 02:38:47;;;;;;;;;;;20.40;60.80;;;;;;461975;257;1144;-46
2021/06/28 02:40:49;;;;;;;;;;;20.40;60.80;;;;;;469684;250;1135;-46
2021/06/28 02:42:50;;;;;;;;;;;20.40;60.80;;;;;;469737;253;2208;-46
2021/06/28 02:44:51;;;;;;;;;;;20.40;60.80;;;;;;461563;257;1059;-45
2021/06/28 02:46:54;;;;;;;;;;;20.40;60.80;;;;;;469678;253;1350;-46
2021/06/28 02:48:54;;;;;;;;;;;20.40;60.80;;;;;;469737;254;2264;-46
2021/06/28 02:50:55;;;;;;;;;;;20.40;60.80;;;;;;461598;257;1539;-46
2021/06/28 02:52:57;;;;;;;;;;;20.40;60.80;;;;;;469706;253;1108;-46
2021/06/28 02:54:58;;;;;;;;;;;20.40;60.80;;;;;;469961;253;1141;-46
2021/06/28 02:56:59;;;;;;;;;;;20.40;60.80;;;;;;461856;257;1106;-46
2021/06/28 02:59:01;;;;;;;;;;;20.40;60.80;;;;;;470212;253;1094;-46
2021/06/28 03:01:02;;;;;;;;;;;20.40;60.70;;;;;;469702;253;1160;-46
2021/06/28 03:03:03;;;;;;;;;;;20.40;60.70;;;;;;461848;257;2204;-46
2021/06/28 03:05:05;;;;;;;;;;;20.40;60.70;;;;;;469931;253;1153;-46
2021/06/28 03:07:06;;;;;;;;;;;20.40;60.70;;;;;;469686;253;1059;-46
2021/06/28 03:09:08;;;;;;;;;;;20.40;60.80;;;;;;461669;257;1214;-46
2021/06/28 03:11:09;;;;;;;;;;;20.40;60.80;;;;;;469855;253;1378;-46
2021/06/28 03:13:10;;;;;;;;;;;20.40;60.70;;;;;;469759;253;1179;-46
2021/06/28 03:15:12;;;;;;;;;;;20.40;60.70;;;;;;461611;257;1086;-46
2021/06/28 03:17:13;;;;;;;;;;;20.40;60.80;;;;;;469674;253;1206;-46
2021/06/28 03:19:14;;;;;;;;;;;20.40;60.70;;;;;;469820;253;1218;-46
2021/06/28 03:21:16;;;;;;;;;;;20.40;60.60;;;;;;461471;258;1678;-46
2021/06/28 03:23:17;;;;;;;;;;;20.40;60.70;;;;;;469711;253;2195;-46
2021/06/28 03:25:18;;;;;;;;;;;20.40;60.60;;;;;;470017;253;1099;-46
2021/06/28 03:27:20;;;;;;;;;;;20.40;60.70;;;;;;461429;257;1280;-46
2021/06/28 03:29:21;;;;;;;;;;;20.40;60.80;;;;;;469811;253;1098;-46
2021/06/28 03:31:22;;;;;;;;;;;20.40;60.70;;;;;;469561;253;1305;-46
2021/06/28 03:33:24;;;;;;;;;;;20.40;60.70;;;;;;461542;258;1073;-46
2021/06/28 03:35:25;;;;;;;;;;;20.40;60.70;;;;;;470060;253;1357;-46
2021/06/28 03:37:26;;;;;;;;;;;20.40;60.60;;;;;;469716;253;1649;-46
2021/06/28 03:39:27;;;;;;;;;;;20.40;60.70;;;;;;461696;257;1083;-46
2021/06/28 03:41:29;;;;;;;;;;;20.40;60.70;;;;;;470057;253;1256;-45
2021/06/28 03:43:30;;;;;;;;;;;20.40;60.70;;;;;;469798;253;2155;-46
2021/06/28 03:45:32;;;;;;;;;;;20.40;60.70;;;;;;461545;258;1397;-46
2021/06/28 03:47:33;;;;;;;;;;;20.40;60.70;;;;;;470057;253;1049;-46
2021/06/28 03:49:34;;;;;;;;;;;20.40;60.70;;;;;;469770;253;1059;-46
2021/06/28 03:51:36;;;;;;;;;;;20.40;60.70;;;;;;461682;257;1359;-46
2021/06/28 03:53:37;;;;;;;;;;;20.40;60.80;;;;;;469820;253;1031;-46
2021/06/28 03:55:38;;;;;;;;;;;20.40;60.80;;;;;;469875;250;1373;-46
2021/06/28 03:57:39;;;;;;;;;;;20.40;60.70;;;;;;461529;258;1134;-46
2021/06/28 03:59:41;;;;;;;;;;;20.40;60.80;;;;;;470021;253;1094;-46
2021/06/28 04:01:42;;;;;;;;;;;20.40;60.70;;;;;;469767;253;1427;-46
2021/06/28 04:03:43;;;;;;;;;;;20.40;60.70;;;;;;461564;258;2215;-46
2021/06/28 04:05:45;;;;;;;;;;;20.40;60.70;;;;;;470018;250;1188;-45
2021/06/28 04:07:46;;;;;;;;;;;20.40;60.70;;;;;;470014;253;1143;-46
2021/06/28 04:09:47;;;;;;;;;;;20.40;60.70;;;;;;461561;258;1202;-46
2021/06/28 04:11:49;;;;;;;;;;;20.40;60.70;;;;;;469653;253;1335;-46
2021/06/28 04:13:50;;;;;;;;;;;20.40;60.70;;;;;;469854;253;1094;-46
2021/06/28 04:15:51;;;;;;;;;;;20.40;60.70;;;;;;461745;257;1208;-46
2021/06/28 04:17:53;;;;;;;;;;;20.40;60.70;;;;;;469964;253;1243;-46
2021/06/28 04:19:54;;;;;;;;;;;20.40;60.80;;;;;;469673;253;1048;-46
2021/06/28 04:21:55;;;;;;;;;;;20.40;60.70;;;;;;461477;257;2265;-46
2021/06/28 04:23:57;;;;;;;;;;;20.40;60.70;;;;;;469711;253;1223;-46
2021/06/28 04:25:58;;;;;;;;;;;20.40;60.70;;;;;;469606;253;1350;-46
2021/06/28 04:27:59;;;;;;;;;;;20.40;60.80;;;;;;461376;258;1239;-46
2021/06/28 04:30:01;;;;;;;;;;;20.40;60.70;;;;;;469871;253;1178;-46
2021/06/28 04:32:02;;;;;;;;;;;20.40;60.70;;;;;;469564;253;1144;-46
2021/06/28 04:34:03;;;;;;;;;;;20.40;60.70;;;;;;461486;258;1145;-46
2021/06/28 04:36:05;;;;;;;;;;;20.40;60.70;;;;;;469587;253;1222;-46
2021/06/28 04:38:06;;;;;;;;;;;20.40;60.70;;;;;;469571;253;1120;-46
2021/06/28 04:40:07;;;;;;;;;;;20.40;60.70;;;;;;461416;258;1063;-46
2021/06/28 04:42:09;;;;;;;;;;;20.40;60.60;;;;;;469664;253;2199;-46
2021/06/28 04:44:10;;;;;;;;;;;20.40;60.70;;;;;;469854;253;1053;-46
2021/06/28 04:46:11;;;;;;;;;;;20.40;60.80;;;;;;461422;257;1106;-46
2021/06/28 04:48:15;;;;;;;;;;;20.40;60.70;;;;;;469586;253;1053;-46
2021/06/28 04:50:14;;;;;;;;;;;20.40;60.70;;;;;;469601;254;1707;-46
2021/06/28 04:52:15;;;;;;;;;;;20.40;60.70;;;;;;461118;257;1235;-46
2021/06/28 04:54:16;;;;;;;;;;;20.40;60.80;;;;;;465855;255;1079;-46
2021/06/28 04:56:18;;;;;;;;;;;20.40;60.70;;;;;;463544;255;1181;-46
2021/06/28 04:58:19;;;;;;;;;;;20.40;60.70;;;;;;465718;255;1193;-46
2021/06/28 05:00:20;;;;;;;;;;;20.40;60.80;;;;;;465685;255;1101;-46
2021/06/28 05:02:22;;;;;;;;;;;20.40;60.80;;;;;;465925;254;2210;-45
2021/06/28 05:04:23;;;;;;;;;;;20.40;60.80;;;;;;469080;254;1204;-46
2021/06/28 05:06:24;;;;;;;;;;;20.40;60.80;;;;;;479292;247;1225;-46
2021/06/28 05:08:26;;;;;;;;;;;20.40;60.70;;;;;;477600;249;1078;-46
2021/06/28 05:10:27;;;;;;;;;;;20.40;60.70;;;;;;477504;250;1126;-46
2021/06/28 05:12:28;;;;;;;;;;;20.40;60.70;;;;;;460553;258;1285;-46
2021/06/28 05:14:30;;;;;;;;;;;20.40;60.70;;;;;;470300;253;1066;-46
2021/06/28 05:16:31;;;;;;;;;;;20.40;60.70;;;;;;464587;256;1157;-46
2021/06/28 05:18:33;;;;;;;;;;;20.40;60.70;;;;;;464503;254;1105;-46
2021/06/28 05:20:34;;;;;;;;;;;20.40;60.70;;;;;;464493;254;1109;-46
2021/06/28 05:22:35;;;;;;;;;;;20.40;60.80;;;;;;464596;254;2214;-45
2021/06/28 05:24:37;;;;;;;;;;;20.40;60.80;;;;;;469624;253;1194;-46
2021/06/28 05:26:38;;;;;;;;;;;20.40;60.60;;;;;;461479;257;1111;-46
2021/06/28 05:28:39;;;;;;;;;;;20.40;60.70;;;;;;469718;253;1131;-46
2021/06/28 05:30:41;;;;;;;;;;;20.40;60.80;;;;;;469521;253;1068;-46
2021/06/28 05:32:42;;;;;;;;;;;20.30;60.80;;;;;;461167;258;1304;-46
2021/06/28 05:34:43;;;;;;;;;;;20.40;60.80;;;;;;469436;253;1096;-46
2021/06/28 05:36:45;;;;;;;;;;;20.40;60.80;;;;;;469481;253;1631;-46
2021/06/28 05:38:46;;;;;;;;;;;20.40;60.80;;;;;;461332;257;1202;-46
2021/06/28 05:40:47;;;;;;;;;;;20.40;60.80;;;;;;469482;253;1181;-46
2021/06/28 05:42:49;;;;;;;;;;;20.40;60.80;;;;;;469399;253;2144;-46
2021/06/28 05:44:50;;;;;;;;;;;20.40;60.70;;;;;;461245;258;1077;-46
2021/06/28 05:46:51;;;;;;;;;;;20.40;60.80;;;;;;469326;253;1268;-46
2021/06/28 05:48:53;;;;;;;;;;;20.40;60.80;;;;;;469320;253;1102;-46
2021/06/28 05:50:54;;;;;;;;;;;20.40;60.80;;;;;;461161;257;1409;-46
2021/06/28 05:52:57;;;;;;;;;;;20.40;60.80;;;;;;469590;253;1206;-46
2021/06/28 05:54:57;;;;;;;;;;;20.40;60.80;;;;;;469371;254;1916;-46
2021/06/28 05:56:58;;;;;;;;;;;20.40;60.80;;;;;;461232;258;1268;-46
2021/06/28 05:59:00;;;;;;;;;;;20.40;60.90;;;;;;469465;253;1067;-46
2021/06/28 06:01:01;;;;;;;;;;;20.40;60.90;;;;;;469314;253;1170;-46
2021/06/28 06:03:02;;;;;;;;;;;20.40;60.90;;;;;;460995;257;2159;-46
2021/06/28 06:05:07;;;;;;;;;;;20.40;60.80;;;;;;469209;253;1079;-46
2021/06/28 06:07:05;;;;;;;;;;;20.40;60.60;;;;;;468963;254;1357;-46
2021/06/28 06:09:06;;;;;;;;;;;20.40;60.60;;;;;;461070;258;1211;-46
2021/06/28 06:11:09;;;;;;;;;;;20.40;60.70;;;;;;469289;253;1352;-46
2021/06/28 06:13:10;;;;;;;;;;;20.40;60.70;;;;;;469387;253;1281;-46
2021/06/28 06:15:11;;;;;;;;;;;20.40;60.70;;;;;;461243;257;1119;-46
2021/06/28 06:17:13;;;;;;;;;;;20.40;60.80;;;;;;469123;253;1280;-46
2021/06/28 06:19:14;;;;;;;;;;;20.40;60.80;;;;;;459329;258;1149;-46
2021/06/28 06:21:15;;;;;;;;;;;20.40;60.80;;;;;;478523;249;1348;-46
2021/06/28 06:23:17;;;;;;;;;;;20.40;60.80;;;;;;461118;258;2215;-46
2021/06/28 06:25:18;;;;;;;;;;;20.40;60.80;;;;;;461576;257;1072;-46
2021/06/28 06:27:19;;;;;;;;;;;20.40;60.80;;;;;;476068;250;1224;-46
2021/06/28 06:29:21;;;;;;;;;;;20.40;60.80;;;;;;461137;258;1141;-46
2021/06/28 06:31:22;;;;;;;;;;;20.40;60.70;;;;;;461128;257;1143;-45
2021/06/28 06:33:23;;;;;;;;;;;20.40;60.80;;;;;;468982;253;1164;-46
2021/06/28 06:35:25;;;;;;;;;;;20.40;60.80;;;;;;461126;257;1163;-46
2021/06/28 06:37:26;;;;;;;;;;;20.40;60.80;;;;;;469488;253;1281;-46
2021/06/28 06:39:27;;;;;;;;;;;20.40;60.80;;;;;;469283;253;1218;-46
2021/06/28 06:41:28;;;;;;;;;;;20.40;60.80;;;;;;460960;258;1309;-46
2021/06/28 06:43:30;;;;;;;;;;;20.40;60.70;;;;;;469232;253;2191;-46
2021/06/28 06:45:31;;;;;;;;;;;20.40;60.80;;;;;;469040;253;1293;-46
2021/06/28 06:47:32;;;;;;;;;;;20.40;60.80;;;;;;460864;258;1172;-46
2021/06/28 06:49:34;;;;;;;;;;;20.40;60.80;;;;;;469038;253;1131;-46
2021/06/28 06:51:35;;;;;;;;;;;20.40;60.70;;;;;;469059;253;1373;-45
2021/06/28 06:53:36;;;;;;;;;;;20.40;60.70;;;;;;461097;257;1200;-46
2021/06/28 06:55:38;;;;;;;;;;;20.40;60.70;;;;;;469124;253;1329;-46
2021/06/28 06:57:39;;;;;;;;;;;20.40;60.60;;;;;;468925;253;1288;-45
2021/06/28 06:59:40;;;;;;;;;;;20.40;60.70;;;;;;460735;258;1127;-46
2021/06/28 07:01:42;;;;;;;;;;;20.40;60.70;;;;;;468969;253;1364;-46
2021/06/28 07:03:43;;;;;;;;;;;20.40;60.70;;;;;;469070;253;2198;-45
2021/06/28 07:05:44;;;;;;;;;;;20.40;60.80;;;;;;460852;257;1375;-46
2021/06/28 07:07:46;;;;;;;;;;;20.40;60.70;;;;;;469207;253;1198;-46
2021/06/28 07:09:47;;;;;;;;;;;20.40;60.70;;;;;;469090;253;1089;-46
2021/06/28 07:11:48;;;;;;;;;;;20.40;60.80;;;;;;460888;257;1375;-46
2021/06/28 07:13:50;;;;;;;;;;;20.40;60.70;;;;;;469794;253;1616;-46
2021/06/28 07:15:51;;;;;;;;;;;20.40;60.70;;;;;;469745;253;1097;-46
2021/06/28 07:17:52;;;;;;;;;;;20.40;60.60;;;;;;460968;258;1232;-46
2021/06/28 07:19:54;;;;;;;;;;;20.50;60.60;;;;;;469074;253;1251;-46
2021/06/28 07:21:55;;;;;;;;;;;20.50;60.60;;;;;;469258;253;1207;-46
2021/06/28 07:23:57;;;;;;;;;;;20.50;60.60;;;;;;461002;257;2185;-46
2021/06/28 07:25:58;;;;;;;;;;;20.50;60.60;;;;;;469142;250;1346;-46
2021/06/28 07:28:00;;;;;;;;;;;20.50;60.50;;;;;;469323;253;1237;-46
2021/06/28 07:30:00;;;;;;;;;;;20.50;60.50;;;;;;460784;258;2583;-46
2021/06/28 07:32:02;;;;;;;;;;;20.60;60.50;;;;;;469038;253;1414;-46
2021/06/28 07:34:03;;;;;;;;;;;20.60;60.50;;;;;;469359;253;1200;-46
2021/06/28 07:36:05;;;;;;;;;;;20.60;60.60;;;;;;460794;258;1355;-46
2021/06/28 07:38:06;;;;;;;;;;;20.50;60.70;;;;;;469091;253;1584;-46
2021/06/28 07:40:07;;;;;;;;;;;20.60;60.70;;;;;;469060;253;1237;-46
2021/06/28 07:42:09;;;;;;;;;;;20.50;60.70;;;;;;460911;257;1206;-46
2021/06/28 07:44:10;;;;;;;;;;;20.60;60.70;;;;;;469002;253;2215;-46
2021/06/28 07:46:11;;;;;;;;;;;20.60;60.50;;;;;;460836;258;1283;-46
2021/06/28 07:48:13;;;;;;;;;;;20.60;60.50;;;;;;469398;253;1110;-46
2021/06/28 07:50:14;;;;;;;;;;;20.60;60.50;;;;;;468996;253;1119;-46
2021/06/28 07:52:15;;;;;;;;;;;20.60;60.50;;;;;;460783;257;1163;-46
2021/06/28 07:54:17;;;;;;;;;;;20.60;60.50;;;;;;469014;253;1228;-46
2021/06/28 07:56:18;;;;;;;;;;;20.60;60.50;;;;;;468851;253;1599;-46
2021/06/28 07:58:19;;;;;;;;;;;20.60;60.50;;;;;;460612;258;1296;-46
2021/06/28 08:00:21;;;;;;;;;;;20.60;60.50;;;;;;468791;253;1110;-46
2021/06/28 08:02:22;;;;;;;;;;;20.60;60.60;;;;;;468840;253;1164;-46
2021/06/28 08:04:26;;;;;;;;;;;20.60;60.50;;;;;;460730;258;2478;-46
2021/06/28 08:06:25;;;;;;;;;;;20.60;60.60;;;;;;468792;254;2342;-46
2021/06/28 08:08:26;;;;;;;;;;;20.60;60.60;;;;;;469060;253;1107;-46
2021/06/28 08:10:28;;;;;;;;;;;20.60;60.70;;;;;;460843;257;1280;-46
2021/06/28 08:12:29;;;;;;;;;;;20.60;60.70;;;;;;468852;253;1264;-46
2021/06/28 08:14:30;;;;;;;;;;;20.60;60.70;;;;;;468967;253;1267;-46
2021/06/28 08:16:31;;;;;;;;;;;20.50;60.60;;;;;;460789;254;1515;-45
2021/06/28 08:18:34;;;;;;;;;;;20.60;60.70;;;;;;469011;253;1192;-46
2021/06/28 08:20:37;;;;;;;;;;;20.60;60.70;;;;;;468989;254;2092;-46
2021/06/28 08:22:36;;;;;;;;;;;20.60;60.70;;;;;;460789;258;1963;-46
2021/06/28 08:24:37;;;;;;;;;;;20.50;60.70;;;;;;469159;253;2199;-46
2021/06/28 08:26:39;;;;;;;;;;;20.50;60.80;;;;;;469021;253;1255;-46
2021/06/28 08:28:40;;;;;;;;;;;20.50;60.70;;;;;;460960;257;1317;-45
2021/06/28 08:30:41;;;;;;;;;;;20.50;60.70;;;;;;468925;253;1133;-46
2021/06/28 08:32:43;;;;;;;;;;;20.50;60.70;;;;;;468878;253;1092;-46
2021/06/28 08:34:44;;;;;;;;;;;20.50;60.70;;;;;;460831;257;1111;-46
2021/06/28 08:36:46;;;;;;;;;;;20.50;60.80;;;;;;468931;253;1144;-46
2021/06/28 08:38:47;;;;;;;;;;;20.50;60.70;;;;;;469035;253;1173;-46
2021/06/28 08:40:48;;;;;;;;;;;20.60;60.70;;;;;;460804;258;1249;-46
2021/06/28 08:42:50;;;;;;;;;;;20.50;60.70;;;;;;469007;253;1209;-46
2021/06/28 08:44:51;;;;;;;;;;;20.50;60.80;;;;;;469043;253;2152;-45
2021/06/28 08:46:52;;;;;;;;;;;20.50;60.80;;;;;;460845;258;1178;-46
2021/06/28 08:48:53;;;;;;;;;;;20.60;60.70;;;;;;469315;253;910;-46
2021/06/28 08:50:55;;;;;;;;;;;20.60;60.80;;;;;;468813;253;1157;-46
2021/06/28 08:52:56;;;;;;;;;;;20.50;60.80;;;;;;460631;257;1161;-46
2021/06/28 08:54:58;;;;;;;;;;;20.50;60.90;;;;;;468981;253;1156;-46
2021/06/28 08:56:59;;;;;;;;;;;20.50;60.80;;;;;;469063;253;1254;-46
2021/06/28 08:59:00;;;;;;;;;;;20.50;60.80;;;;;;461511;257;988;-45
2021/06/28 09:01:02;;;;;;;;;;;20.50;60.80;;;;;;468809;253;1346;-46
2021/06/28 09:03:03;;;;;;;;;;;20.60;60.70;;;;;;469633;253;1651;-45
2021/06/28 09:05:04;;;;;;;;;;;20.50;60.70;;;;;;461558;257;2195;-46
2021/06/28 09:07:06;;;;;;;;;;;20.50;60.70;;;;;;469167;253;1483;-46
2021/06/28 09:09:08;;;;;;;;;;;20.50;60.80;;;;;;469118;253;1068;-46
2021/06/28 09:11:09;;;;;;;;;;;20.50;60.80;;;;;;460922;258;2214;-45
2021/06/28 09:13:10;;;;;;;;;;;20.50;60.90;;;;;;468908;253;1114;-45
2021/06/28 09:15:11;;;;;;;;;;;20.50;60.80;;;;;;469004;253;1199;-46
2021/06/28 09:17:12;;;;;;;;;;;20.60;60.90;;;;;;461123;257;1273;-45
2021/06/28 09:19:14;;;;;;;;;;;20.50;60.70;;;;;;469776;253;892;-46
2021/06/28 09:21:15;;;;;;;;;;;20.60;60.70;;;;;;469089;253;2248;-46
2021/06/28 09:23:16;;;;;;;;;;;20.60;60.70;;;;;;460764;257;1248;-46
2021/06/28 09:25:19;;;;;;;;;;;20.60;60.50;;;;;;468986;253;2195;-46
2021/06/28 09:27:20;;;;;;;;;;;20.60;60.50;;;;;;468983;253;1929;-46
2021/06/28 09:29:20;;;;;;;;;;;20.60;60.50;;;;;;460950;257;1353;-46
2021/06/28 09:31:22;;;;;;;;;;;20.60;60.50;;;;;;469081;253;1177;-46
2021/06/28 09:33:23;;;;;;;;;;;20.60;60.60;;;;;;468944;253;1212;-46
2021/06/28 09:35:24;;;;;;;;;;;20.60;60.70;;;;;;460919;257;1157;-46
2021/06/28 09:37:26;;;;;;;;;;;20.60;60.60;;;;;;468990;253;1244;-46
2021/06/28 09:39:27;;;;;;;;;;;20.60;60.50;;;;;;468916;253;1509;-46
2021/06/28 09:41:29;;;;;;;;;;;20.60;60.50;;;;;;460813;257;1313;-46
2021/06/28 09:43:30;;;;;;;;;;;20.60;60.60;;;;;;468823;254;2295;-46
2021/06/28 09:45:32;;;;;;;;;;;20.60;60.50;;;;;;468930;253;2127;-46
2021/06/28 09:47:32;;;;;;;;;;;20.60;60.60;;;;;;460632;258;1820;-46
2021/06/28 09:49:34;;;;;;;;;;;20.60;60.50;;;;;;468845;253;1278;-46
2021/06/28 09:51:35;;;;;;;;;;;20.60;60.50;;;;;;468785;253;1141;-46
2021/06/28 09:53:36;;;;;;;;;;;20.70;60.60;;;;;;460733;258;1167;-46
2021/06/28 09:55:42;;;;;;;;;;;20.70;60.50;;;;;;468826;253;1302;-46
2021/06/28 09:57:39;;;;;;;;;;;20.70;60.50;;;;;;468775;254;2172;-45
2021/06/28 09:59:41;;;;;;;;;;;20.70;60.50;;;;;;459039;258;1130;-46
2021/06/28 10:01:42;;;;;;;;;;;20.70;60.50;;;;;;478281;249;1162;-46
2021/06/28 10:03:44;;;;;;;;;;;20.70;60.60;;;;;;476336;250;1203;-46
2021/06/28 10:05:56;;;;;;;;;;;20.70;60.60;;;;;;476478;249;2447;-46
2021/06/28 10:07:55;;;;;;;;;;;20.80;60.40;;;;;;476401;249;1408;-44
2021/06/28 10:09:55;;;;;;;;;;;20.80;60.30;;;;;;476773;249;2034;-44
2021/06/28 10:11:59;;;;;;;;;;;20.80;60.30;;;;;;476666;250;1250;-44
2021/06/28 10:13:57;;;;;;;;;;;20.80;60.30;;;;;;476734;249;1662;-44
2021/06/28 10:15:58;;;;;;;;;;;20.90;60.20;;;;;;476794;249;1374;-43
2021/06/28 10:18:00;;;;;;;;;;;20.90;60.40;;;;;;477046;249;1101;-44
2021/06/28 10:20:01;;;;;;;;;;;20.90;60.10;;;;;;476826;250;1116;-43
2021/06/28 10:22:02;;;;;;;;;;;20.80;60.10;;;;;;476880;249;1147;-44
2021/06/28 10:24:04;;;;;;;;;;;20.90;60.10;;;;;;476899;249;2211;-44
2021/06/28 10:26:05;;;;;;;;;;;20.90;60.10;;;;;;476847;249;1541;-43
2021/06/28 10:28:07;;;;;;;;;;;20.90;60.10;;;;;;476735;249;1128;-44
2021/06/28 10:30:08;;;;;;;;;;;20.90;60.00;;;;;;476583;249;1102;-46
2021/06/28 10:32:09;;;;;;;;;;;20.90;60.00;;;;;;476637;250;1977;-45
2021/06/28 10:34:10;;;;;;;;;;;20.80;60.20;;;;;;476953;249;1106;-46
2021/06/28 10:36:12;;;;;;;;;;;20.70;60.30;;;;;;476827;250;1428;-46
2021/06/28 10:38:13;;;;;;;;;;;20.70;60.50;;;;;;476999;250;2057;-46
2021/06/28 10:40:14;;;;;;;;;;;20.70;60.50;;;;;;476964;249;1072;-46
2021/06/28 10:42:16;;;;;;;;;;;20.70;60.50;;;;;;476836;250;1117;-46
2021/06/28 10:44:17;;;;;;;;;;;20.70;60.40;;;;;;476852;249;2211;-46
2021/06/28 10:46:18;;;;;;;;;;;20.70;60.50;;;;;;476759;249;1419;-46
2021/06/28 10:48:20;;;;;;;;;;;20.70;60.50;;;;;;476885;249;1250;-46
2021/06/28 10:50:21;;;;;;;;;;;20.70;60.50;;;;;;476684;250;1121;-46
2021/06/28 10:52:22;;;;;;;;;;;20.80;60.40;;;;;;476737;249;1197;-46
2021/06/28 10:54:24;;;;;;;;;;;20.70;60.50;;;;;;476814;249;1405;-46
2021/06/28 10:56:28;;;;;;;;;;;20.70;60.50;;;;;;476721;249;1568;-46
2021/06/28 10:58:29;;;;;;;;;;;20.70;60.50;;;;;;476865;249;2099;-46
2021/06/28 11:00:30;;;;;;;;;;;20.70;60.50;;;;;;476883;249;1123;-46
2021/06/28 11:02:32;;;;;;;;;;;20.80;60.60;;;;;;476760;250;1203;-45
2021/06/28 11:04:33;;;;;;;;;;;20.70;60.50;;;;;;476806;250;2179;-46
2021/06/28 11:06:34;;;;;;;;;;;20.80;60.50;;;;;;476795;249;1456;-46
2021/06/28 11:08:36;;;;;;;;;;;20.70;60.40;;;;;;477017;250;1111;-46
2021/06/28 11:10:37;;;;;;;;;;;20.80;60.40;;;;;;476918;250;1125;-46
2021/06/28 11:12:38;;;;;;;;;;;20.80;60.50;;;;;;476943;249;1169;-46
2021/06/28 11:14:40;;;;;;;;;;;20.70;60.40;;;;;;477074;249;1127;-46
2021/06/28 11:16:41;;;;;;;;;;;20.80;60.40;;;;;;476997;246;1333;-46
2021/06/28 11:18:42;;;;;;;;;;;20.80;60.40;;;;;;477024;249;1075;-46
2021/06/28 11:20:44;;;;;;;;;;;20.80;60.50;;;;;;476806;249;1234;-46
2021/06/28 11:22:45;;;;;;;;;;;20.80;60.60;;;;;;476829;250;1134;-46
2021/06/28 11:24:46;;;;;;;;;;;20.80;60.60;;;;;;476888;249;2156;-45
2021/06/28 11:26:48;;;;;;;;;;;20.80;60.60;;;;;;476839;250;1368;-46
2021/06/28 11:28:50;;;;;;;;;;;20.80;60.60;;;;;;477019;249;1132;-46
2021/06/28 11:30:50;;;;;;;;;;;20.80;60.60;;;;;;476890;250;1979;-46
2021/06/28 11:32:52;;;;;;;;;;;20.80;60.60;;;;;;476886;250;1210;-46
2021/06/28 11:34:53;;;;;;;;;;;20.80;60.60;;;;;;476867;250;1106;-46
2021/06/28 11:36:54;;;;;;;;;;;20.80;60.60;;;;;;476907;250;1342;-46
2021/06/28 11:38:56;;;;;;;;;;;20.80;60.60;;;;;;477035;250;1059;-46
2021/06/28 11:40:57;;;;;;;;;;;20.80;60.60;;;;;;476868;250;1435;-46
2021/06/28 11:42:58;;;;;;;;;;;20.80;60.60;;;;;;476840;249;1209;-46
2021/06/28 11:44:59;;;;;;;;;;;20.80;60.50;;;;;;476838;250;2191;-46
2021/06/28 11:47:01;;;;;;;;;;;20.80;60.60;;;;;;476846;249;1227;-46
2021/06/28 11:49:03;;;;;;;;;;;20.80;60.60;;;;;;476862;250;1095;-46
2021/06/28 11:51:04;;;;;;;;;;;20.80;60.60;;;;;;476924;249;1214;-46
2021/06/28 11:53:05;;;;;;;;;;;20.80;60.60;;;;;;477186;249;1094;-46
2021/06/28 11:55:08;;;;;;;;;;;20.80;60.60;;;;;;477128;249;1198;-46
2021/06/28 11:57:10;;;;;;;;;;;20.80;60.60;;;;;;476906;249;1441;-46